Hermitage, Tennessee
Current Conditions -  °F | °C
As of 1:53 AM on Thursday 23 Oct 2014 (Local Time) from KBNA Reporting Station
Clear Clear  
Wind Chill: 42°   Ceiling: Unl
Heat Index: 44°   Visibility: 10mi
Dew Point: 41°   Wind: 5mph
Humidity: 89%   Direction: 30°NNE
Pressure: 30.23"   Gusts: NA
Location:  36.2°N, 86.62°W
Report Text: KBNA 230653Z 03004KT 10SM CLR 07/05 A3023 RMK AO2 SLP234 T00670050
Loading
Personal Weather Stations






























Interactive Weather Map
Tropical Storm Tracking
New forecast layout! Learn more

10-Day Weather Forecast

Advertisements
Track Severe Weather on mobile